Time;durP1;ratioP1;P1;durP2;ratioP2;P2;SDS_P1;SDS_P2;PMS_P1;PMS_P2;Temp;Humidity;BMP_temperature;BMP_pressure;BME280_temperature;BME280_humidity;BME280_pressure;Samples;Min_cycle;Max_cycle;Signal;HPM_P1;HPM_P2
2022/05/15 00:01:52;;;;;;;11.82;6.78;;;;;;;15.38;100.00;98217.38;5048035;28;20048;-85
2022/05/15 00:04:18;;;;;;;13.50;7.22;;;;;;;15.38;100.00;98229.19;5048576;28;20046;-84
2022/05/15 00:06:44;;;;;;;13.55;8.32;;;;;;;15.43;100.00;98219.97;5046840;28;20031;-84
2022/05/15 00:09:09;;;;;;;12.80;7.30;;;;;;;15.54;100.00;98229.59;5047006;28;20025;-83
2022/05/15 00:11:35;;;;;;;13.73;8.00;;;;;;;15.62;100.00;98234.34;5046948;28;20093;-85
2022/05/15 00:14:02;;;;;;;14.02;8.50;;;;;;;15.62;100.00;98230.75;5047818;28;20037;-83
2022/05/15 00:16:29;;;;;;;15.00;8.45;;;;;;;15.54;100.00;98218.56;5044477;28;20025;-83
2022/05/15 00:18:55;;;;;;;16.80;9.85;;;;;;;15.49;100.00;98224.25;5046717;28;20026;-84
2022/05/15 00:21:20;;;;;;;19.30;10.55;;;;;;;15.47;100.00;98209.94;5045615;28;20056;-83
2022/05/15 00:23:46;;;;;;;18.95;10.30;;;;;;;15.43;100.00;98211.72;5042364;28;20030;-84
2022/05/15 00:26:12;;;;;;;17.15;10.40;;;;;;;15.43;100.00;98208.94;5044020;28;20018;-84
2022/05/15 00:28:37;;;;;;;20.40;10.55;;;;;;;15.47;100.00;98204.44;5045850;28;20025;-84
2022/05/15 00:31:04;;;;;;;21.80;11.43;;;;;;;15.48;100.00;98211.59;5045515;28;20033;-85
2022/05/15 00:33:30;;;;;;;23.13;11.25;;;;;;;15.41;100.00;98208.47;5043256;28;20029;-86
2022/05/15 00:35:55;;;;;;;22.77;10.68;;;;;;;15.47;100.00;98201.69;5044705;28;20089;-84
2022/05/15 00:38:21;;;;;;;20.67;10.70;;;;;;;15.36;100.00;98192.06;5044813;28;20065;-84
2022/05/15 00:40:48;;;;;;;19.52;11.57;;;;;;;15.40;100.00;98202.16;5044603;28;20029;-83
2022/05/15 00:43:38;;;;;;;24.70;11.13;;;;;;;15.43;100.00;98207.00;5047357;28;20033;-83
2022/05/15 00:46:07;;;;;;;22.25;11.10;;;;;;;15.40;100.00;98207.66;5040620;28;20060;-83
2022/05/15 00:48:33;;;;;;;19.25;10.70;;;;;;;15.54;100.00;98204.78;5041112;28;20040;-83
2022/05/15 00:51:03;;;;;;;21.98;11.43;;;;;;;15.61;100.00;98198.78;5046573;28;20033;-86
2022/05/15 00:53:30;;;;;;;21.00;10.80;;;;;;;15.57;100.00;98200.59;5046551;28;20036;-84
2022/05/15 00:55:56;;;;;;;18.85;10.27;;;;;;;15.58;100.00;98205.78;5045902;28;20045;-83
2022/05/15 00:58:43;;;;;;;20.08;10.70;;;;;;;15.49;100.00;98202.19;5046452;28;20033;-83
2022/05/15 01:01:08;;;;;;;20.27;11.90;;;;;;;15.46;100.00;98189.00;5048411;28;20034;-84
2022/05/15 01:03:34;;;;;;;18.67;10.73;;;;;;;15.39;100.00;98191.41;5060653;28;20044;-80
2022/05/15 01:06:00;;;;;;;22.00;12.43;;;;;;;15.43;100.00;98208.94;5039531;28;20036;-81
2022/05/15 01:08:27;;;;;;;17.02;10.45;;;;;;;15.37;100.00;98210.25;5038713;28;20120;-81
2022/05/15 01:11:08;;;;;;;17.92;10.57;;;;;;;15.19;100.00;98205.81;5035042;28;20061;-78
2022/05/15 01:13:35;;;;;;;27.23;11.93;;;;;;;15.18;100.00;98202.25;5036351;28;20029;-81
2022/05/15 01:16:02;;;;;;;23.23;12.23;;;;;;;15.30;100.00;98209.88;5043714;28;20029;-80
2022/05/15 01:18:32;;;;;;;24.65;14.18;;;;;;;15.38;100.00;98211.88;5032735;28;20026;-81
2022/05/15 01:20:59;;;;;;;25.27;13.85;;;;;;;15.38;100.00;98200.84;5033339;28;20025;-81
2022/05/15 01:23:25;;;;;;;27.25;13.27;;;;;;;15.40;100.00;98207.66;5032878;28;20026;-79
2022/05/15 01:25:51;;;;;;;27.10;13.93;;;;;;;15.45;100.00;98217.72;5032995;28;20044;-81
2022/05/15 01:28:23;;;;;;;25.33;13.93;;;;;;;15.51;100.00;98222.78;5047858;28;20026;-78
2022/05/15 01:30:52;;;;;;;21.83;13.30;;;;;;;15.56;100.00;98213.56;5032884;28;20421;-77
2022/05/15 01:33:18;;;;;;;21.77;12.63;;;;;;;15.63;100.00;98213.88;5049071;28;20041;-79
2022/05/15 01:35:44;;;;;;;25.10;14.20;;;;;;;15.63;100.00;98210.34;5033613;28;20025;-79
2022/05/15 01:38:10;;;;;;;23.83;14.05;;;;;;;15.63;100.00;98211.13;5034151;28;20028;-79
2022/05/15 01:40:36;;;;;;;24.13;14.10;;;;;;;15.68;100.00;98213.75;5033747;28;20388;-81
2022/05/15 01:43:03;;;;;;;24.50;13.82;;;;;;;15.61;100.00;98215.34;5034979;28;20029;-82
2022/05/15 01:45:28;;;;;;;23.90;12.93;;;;;;;15.51;100.00;98216.44;5022134;28;20030;-81
2022/05/15 01:47:54;;;;;;;25.17;14.15;;;;;;;15.46;100.00;98205.56;5040259;28;20024;-82
2022/05/15 01:50:19;;;;;;;25.40;14.95;;;;;;;15.30;100.00;98204.38;5047034;28;20132;-80
2022/05/15 01:52:45;;;;;;;25.73;14.52;;;;;;;15.19;100.00;98198.31;5040256;28;20049;-81
2022/05/15 01:55:12;;;;;;;21.33;12.07;;;;;;;15.26;100.00;98209.72;5055462;28;20029;-82
2022/05/15 01:57:38;;;;;;;22.20;12.07;;;;;;;15.36;100.00;98208.59;5042147;28;20105;-85
2022/05/15 02:00:07;;;;;;;23.63;12.18;;;;;;;15.40;100.00;98215.09;5041438;28;20063;-82
2022/05/15 02:02:32;;;;;;;17.90;9.90;;;;;;;15.27;100.00;98205.00;5040547;28;20072;-83
2022/05/15 02:04:58;;;;;;;13.20;8.27;;;;;;;15.19;100.00;98205.81;5040645;28;20034;-82
2022/05/15 02:07:23;;;;;;;15.48;9.63;;;;;;;15.20;100.00;98204.66;5057293;28;20022;-81
2022/05/15 02:09:49;;;;;;;15.98;8.55;;;;;;;15.08;100.00;98193.44;5040752;28;20055;-83
2022/05/15 02:12:14;;;;;;;14.25;8.38;;;;;;;15.06;100.00;98212.22;5038975;28;20024;-83
2022/05/15 02:14:40;;;;;;;14.38;7.88;;;;;;;14.85;100.00;98214.72;5047993;28;20120;-85
2022/05/15 02:17:05;;;;;;;17.55;8.63;;;;;;;14.63;100.00;98204.56;5043334;28;20022;-82
2022/05/15 02:19:32;;;;;;;15.07;7.95;;;;;;;14.66;100.00;98220.44;5039127;28;20029;-82
2022/05/15 02:21:57;;;;;;;18.05;7.82;;;;;;;14.67;100.00;98219.34;5040568;28;20092;-80
2022/05/15 02:24:24;;;;;;;13.52;8.15;;;;;;;14.66;100.00;98223.19;5039968;28;20057;-82
2022/05/15 02:26:50;;;;;;;14.65;8.02;;;;;;;14.36;100.00;98219.31;5039126;28;20026;-80
2022/05/15 02:29:16;;;;;;;13.98;8.30;;;;;;;14.21;100.00;98191.31;5040433;28;20502;-82
2022/05/15 02:31:41;;;;;;;14.30;8.20;;;;;;;14.30;100.00;98219.72;5041736;28;20144;-83
2022/05/15 02:34:07;;;;;;;11.50;7.45;;;;;;;14.16;100.00;98214.25;5042615;28;20080;-83
2022/05/15 02:36:33;;;;;;;13.27;7.65;;;;;;;14.08;100.00;98225.19;5042809;28;20109;-85
2022/05/15 02:38:59;;;;;;;14.68;7.80;;;;;;;14.17;100.00;98226.06;5041546;28;20042;-83
2022/05/15 02:41:24;;;;;;;16.85;7.75;;;;;;;14.06;100.00;98213.69;5041199;28;20037;-82
2022/05/15 02:43:50;;;;;;;16.35;8.23;;;;;;;14.19;100.00;98221.88;5040202;28;20548;-83
2022/05/15 02:46:15;;;;;;;15.90;7.80;;;;;;;14.19;100.00;98212.84;5041713;28;20032;-83
2022/05/15 02:51:25;;;;;;;16.90;8.32;;;;;;;14.26;100.00;98221.44;5042224;28;20084;-83
2022/05/15 02:53:50;;;;;;;17.25;9.00;;;;;;;14.18;100.00;98220.28;5040933;28;20029;-83
2022/05/15 02:56:23;;;;;;;15.15;8.00;;;;;;;14.31;100.00;98235.09;5039722;28;20105;-82
2022/05/15 02:58:49;;;;;;;20.38;9.20;;;;;;;14.22;100.00;98234.22;5041418;28;20029;-82
2022/05/15 03:01:16;;;;;;;16.02;7.85;;;;;;;14.05;100.00;98228.56;5041963;28;20025;-83
2022/05/15 03:03:43;;;;;;;12.32;8.10;;;;;;;14.13;100.00;98242.38;5040364;28;20597;-83
2022/05/15 03:06:09;;;;;;;11.48;7.20;;;;;;;14.07;100.00;98221.63;5040772;28;20025;-82
2022/05/15 03:08:37;;;;;;;13.30;7.47;;;;;;;14.15;100.00;98233.84;5040930;28;20040;-83
2022/05/15 03:11:02;;;;;;;13.32;8.00;;;;;;;14.13;100.00;98236.06;5047463;28;20030;-85
2022/05/15 03:13:28;;;;;;;15.57;7.78;;;;;;;14.19;100.00;98235.63;5043133;28;20036;-84
2022/05/15 03:15:54;;;;;;;13.32;7.88;;;;;;;14.01;100.00;98238.56;5035780;28;20031;-83
2022/05/15 03:18:20;;;;;;;12.02;7.55;;;;;;;14.08;100.00;98241.69;5034743;28;20009;-82
2022/05/15 03:20:45;;;;;;;12.18;7.03;;;;;;;13.86;100.00;98229.56;5041884;28;20036;-82
2022/05/15 03:23:11;;;;;;;11.43;6.65;;;;;;;13.97;100.00;98232.06;5040526;28;20025;-83
2022/05/15 03:25:48;;;;;;;13.73;7.93;;;;;;;13.92;100.00;98244.00;5044464;28;20031;-84
2022/05/15 03:28:13;;;;;;;13.23;7.03;;;;;;;13.88;100.00;98241.03;5048219;28;20018;-83
2022/05/15 03:30:41;;;;;;;14.75;7.60;;;;;;;13.94;100.00;98247.22;5040095;28;20033;-82
2022/05/15 03:33:08;;;;;;;10.82;6.55;;;;;;;14.14;100.00;98248.72;5056046;28;20045;-81
2022/05/15 03:35:34;;;;;;;11.13;6.53;;;;;;;14.21;100.00;98241.66;5041888;28;20022;-83
2022/05/15 03:38:00;;;;;;;11.05;6.95;;;;;;;14.21;100.00;98238.09;5040548;28;20025;-81
2022/05/15 03:40:26;;;;;;;12.85;6.55;;;;;;;14.31;100.00;98237.84;5039379;28;20068;-83
2022/05/15 03:42:51;;;;;;;12.13;6.28;;;;;;;14.28;100.00;98235.72;5040677;28;20029;-82
2022/05/15 03:45:16;;;;;;;11.05;6.45;;;;;;;14.34;100.00;98242.75;5040057;28;20067;-81
2022/05/15 03:47:51;;;;;;;11.55;6.78;;;;;;;14.45;100.00;98242.19;5039183;28;20088;-83
2022/05/15 03:50:17;;;;;;;11.95;6.72;;;;;;;14.37;100.00;98242.97;5039226;28;20045;-82
2022/05/15 03:52:43;;;;;;;10.93;5.95;;;;;;;14.42;100.00;98251.06;5039385;28;20048;-83
2022/05/15 03:55:09;;;;;;;13.27;5.85;;;;;;;14.39;100.00;98250.88;5038785;28;20025;-85
2022/05/15 03:57:35;;;;;;;14.02;7.30;;;;;;;14.32;100.00;98243.03;5038759;28;20045;-84
2022/05/15 04:00:00;;;;;;;11.77;6.18;;;;;;;14.39;100.00;98250.88;5039984;28;20390;-82
2022/05/15 04:02:26;;;;;;;10.65;6.22;;;;;;;14.51;100.00;98242.06;5038879;28;20029;-83
2022/05/15 04:04:51;;;;;;;13.93;7.28;;;;;;;14.47;100.00;98241.88;5040199;28;20056;-82
2022/05/15 04:07:17;;;;;;;12.32;7.13;;;;;;;14.57;100.00;98243.53;5054014;28;20449;-82
2022/05/15 04:09:42;;;;;;;13.80;7.50;;;;;;;14.48;100.00;98249.00;5038582;28;20021;-83
2022/05/15 04:12:13;;;;;;;11.38;7.45;;;;;;;14.59;100.00;98261.41;5056991;28;20029;-84
2022/05/15 04:14:38;;;;;;;12.98;7.80;;;;;;;14.60;100.00;98253.97;5041039;28;20029;-82
2022/05/15 04:17:04;;;;;;;14.95;8.60;;;;;;;14.64;100.00;98253.00;5040359;28;20025;-81
2022/05/15 04:19:30;;;;;;;18.08;9.77;;;;;;;14.57;100.00;98258.13;5039906;28;20496;-83
2022/05/15 04:21:58;;;;;;;15.30;9.07;;;;;;;14.62;100.00;98255.28;5038167;28;20026;-82
2022/05/15 04:24:23;;;;;;;19.20;10.27;;;;;;;14.70;100.00;98262.75;5038539;28;20017;-81
2022/05/15 04:26:49;;;;;;;15.23;9.50;;;;;;;14.63;100.00;98251.38;5053789;28;20056;-83
2022/05/15 04:29:15;;;;;;;16.75;8.02;;;;;;;14.72;100.00;98262.47;5036174;28;20030;-80
2022/05/15 04:31:41;;;;;;;14.60;9.43;;;;;;;14.75;100.00;98265.41;5037067;28;20053;-81
2022/05/15 04:34:06;;;;;;;17.25;9.90;;;;;;;14.79;100.00;98260.88;5038001;28;20030;-82
2022/05/15 04:36:33;;;;;;;17.15;11.25;;;;;;;14.85;100.00;98267.03;5042421;28;20029;-82
2022/05/15 04:38:59;;;;;;;18.83;10.35;;;;;;;14.95;100.00;98272.28;5042217;28;20089;-82
2022/05/15 04:41:24;;;;;;;17.67;10.35;;;;;;;14.92;100.00;98262.72;5059498;28;20030;-82
2022/05/15 04:43:49;;;;;;;19.85;11.40;;;;;;;14.98;100.00;98264.22;5043177;28;20124;-82
2022/05/15 04:46:16;;;;;;;21.38;11.25;;;;;;;15.08;100.00;98265.88;5043184;28;20475;-82
2022/05/15 04:48:42;;;;;;;19.00;11.38;;;;;;;15.12;100.00;98274.34;5044772;28;20033;-80
2022/05/15 04:51:07;;;;;;;17.02;10.52;;;;;;;15.04;100.00;98278.66;5059631;28;20032;-81
2022/05/15 04:53:33;;;;;;;20.50;11.73;;;;;;;15.14;100.00;98283.09;5043473;28;20021;-81
2022/05/15 04:56:00;;;;;;;21.60;11.68;;;;;;;15.19;100.00;98286.50;5042855;28;20121;-80
2022/05/15 04:58:28;;;;;;;22.65;11.07;;;;;;;15.20;100.00;98290.09;5058349;28;20029;-81
2022/05/15 05:00:54;;;;;;;18.38;11.07;;;;;;;15.21;100.00;98286.22;5038702;28;20023;-81
2022/05/15 05:03:20;;;;;;;18.58;10.90;;;;;;;15.32;100.00;98293.06;5028235;28;20056;-82
2022/05/15 05:05:47;;;;;;;21.45;11.65;;;;;;;15.46;100.00;98282.75;5028613;28;20081;-81
2022/05/15 05:08:12;;;;;;;17.80;11.07;;;;;;;15.64;100.00;98298.25;5037831;28;20056;-82
2022/05/15 05:10:38;;;;;;;19.73;10.10;;;;;;;15.79;100.00;98292.28;5040342;28;20112;-81
2022/05/15 05:13:04;;;;;;;16.80;10.23;;;;;;;15.86;100.00;98300.91;5037010;28;20036;-76
2022/05/15 05:15:29;;;;;;;14.77;7.85;;;;;;;15.82;100.00;98302.69;5039503;28;20022;-82
2022/05/15 05:17:56;;;;;;;13.88;8.38;;;;;;;15.99;100.00;98299.97;5041523;28;20030;-79
2022/05/15 05:20:22;;;;;;;13.85;9.00;;;;;;;16.02;100.00;98299.31;5035327;28;20052;-81
2022/05/15 05:22:48;;;;;;;13.30;7.45;;;;;;;16.00;100.00;98301.59;5035831;28;20116;-80
2022/05/15 05:25:13;;;;;;;16.25;9.30;;;;;;;16.21;100.00;98300.97;5037895;28;20454;-79
2022/05/15 05:27:41;;;;;;;16.60;9.85;;;;;;;16.18;100.00;98305.19;5036228;28;20041;-77
2022/05/15 05:30:14;;;;;;;15.48;9.00;;;;;;;16.20;100.00;98308.44;5038969;28;20033;-83
2022/05/15 05:32:39;;;;;;;15.20;9.00;;;;;;;16.29;100.00;98306.47;5039446;28;20061;-80
2022/05/15 05:35:06;;;;;;;16.75;9.32;;;;;;;16.60;100.00;98309.94;5041163;28;20136;-79
2022/05/15 05:37:32;;;;;;;19.20;12.30;;;;;;;16.78;100.00;98313.50;5042029;28;20038;-79
2022/05/15 05:39:57;;;;;;;23.35;13.13;;;;;;;17.17;100.00;98306.09;5041097;28;20051;-77
2022/05/15 05:42:22;;;;;;;12.32;8.48;;;;;;;17.32;100.00;98306.38;5040994;28;20489;-81
2022/05/15 05:44:48;;;;;;;32.13;19.33;;;;;;;17.65;100.00;98317.69;5035843;28;20029;-80
2022/05/15 05:47:14;;;;;;;22.42;12.60;;;;;;;17.52;100.00;98304.84;5035485;28;22254;-81
2022/05/15 05:49:39;;;;;;;30.15;19.00;;;;;;;17.45;100.00;98310.88;5036876;28;20034;-83
2022/05/15 05:52:05;;;;;;;12.00;8.40;;;;;;;17.50;100.00;98310.72;5043529;28;20030;-80
2022/05/15 05:54:30;;;;;;;21.33;12.65;;;;;;;17.54;100.00;98317.19;5055956;28;20034;-78
2022/05/15 05:56:58;;;;;;;45.38;29.40;;;;;;;17.86;100.00;98318.53;5035063;28;20049;-79
2022/05/15 05:59:24;;;;;;;22.00;13.77;;;;;;;18.18;100.00;98319.81;5030866;28;20033;-77
2022/05/15 06:01:49;;;;;;;14.40;8.98;;;;;;;17.67;100.00;98305.13;5032128;28;20119;-82
2022/05/15 06:06:59;;;;;;;11.40;8.32;;;;;;;17.05;100.00;98310.38;5031322;28;20044;-76
2022/05/15 06:09:24;;;;;;;12.43;7.68;;;;;;;18.07;100.00;98310.31;5031519;28;20026;-76
2022/05/15 06:11:50;;;;;;;11.95;8.02;;;;;;;18.11;100.00;98323.13;5029730;28;20899;-76
2022/05/15 06:14:15;;;;;;;36.10;22.35;;;;;;;18.04;100.00;98331.13;5030830;28;20033;-74
2022/05/15 06:16:40;;;;;;;10.65;7.85;;;;;;;17.85;100.00;98314.19;5030238;28;20123;-77
2022/05/15 06:19:06;;;;;;;10.32;7.22;;;;;;;18.19;100.00;98327.00;5031762;28;20116;-75
2022/05/15 06:21:31;;;;;;;11.63;7.15;;;;;;;18.36;100.00;98323.28;5030726;28;20478;-77
2022/05/15 06:23:56;;;;;;;10.63;6.80;;;;;;;18.04;100.00;98336.69;5031392;28;20025;-78
2022/05/15 06:26:22;;;;;;;11.48;7.10;;;;;;;18.18;100.00;98326.19;5031973;28;20033;-75
2022/05/15 06:28:47;;;;;;;11.75;6.60;;;;;;;18.23;100.00;98327.13;5031132;28;20104;-78
2022/05/15 06:31:13;;;;;;;10.93;6.72;;;;;;;18.40;100.00;98332.53;5046124;28;20498;-75
2022/05/15 06:33:38;;;;;;;8.93;6.55;;;;;;;18.20;100.00;98328.59;5030009;28;20076;-77
2022/05/15 06:36:04;;;;;;;9.18;6.38;;;;;;;18.45;100.00;98341.47;5031561;28;20108;-77
2022/05/15 06:38:29;;;;;;;8.95;6.45;;;;;;;18.58;100.00;98323.78;5029640;28;20029;-75
2022/05/15 06:40:56;;;;;;;9.93;6.50;;;;;;;18.75;100.00;98331.16;5031129;28;20466;-75
2022/05/15 06:43:21;;;;;;;8.63;6.32;;;;;;;18.94;100.00;98325.94;5029340;28;20060;-77
2022/05/15 06:45:48;;;;;;;7.90;6.22;;;;;;;18.92;99.38;98328.22;5030420;28;20028;-76
2022/05/15 06:48:15;;;;;;;10.18;6.38;;;;;;;18.72;99.61;98326.28;5030425;28;20030;-76
2022/05/15 06:50:41;;;;;;;9.82;6.05;;;;;;;18.86;99.09;98324.03;5030840;28;20033;-76
2022/05/15 06:53:12;;;;;;;10.02;6.68;;;;;;;19.05;97.83;98321.56;5030171;28;20389;-76
2022/05/15 06:57:28;;;;;;;9.15;7.13;;;;;;;19.18;97.19;98325.19;5030345;28;20046;-75
2022/05/15 06:58:24;;;;;;;8.57;6.10;;;;;;;19.33;98.17;98315.44;5029446;28;20053;-74
2022/05/15 07:00:49;;;;;;;12.82;6.38;;;;;;;19.00;97.34;98324.56;5029093;28;20383;-76
2022/05/15 07:03:15;;;;;;;10.60;6.55;;;;;;;19.11;100.00;98322.97;5030022;28;20021;-75
2022/05/15 07:05:40;;;;;;;9.93;6.95;;;;;;;19.38;97.83;98312.41;5030367;28;20025;-75
2022/05/15 07:08:08;;;;;;;12.25;7.18;;;;;;;18.95;98.06;98310.91;5028966;28;20021;-74
2022/05/15 07:10:34;;;;;;;10.80;7.70;;;;;;;18.81;99.17;98317.91;5030652;28;20375;-75
2022/05/15 07:12:59;;;;;;;10.25;7.03;;;;;;;18.92;99.18;98314.34;5030831;28;20079;-75
2022/05/15 07:15:25;;;;;;;11.45;7.57;;;;;;;19.09;97.38;98310.59;5030403;28;20083;-77
2022/05/15 07:17:50;;;;;;;11.95;7.18;;;;;;;19.45;96.56;98312.69;5030141;28;20079;-76
2022/05/15 07:20:15;;;;;;;9.48;7.28;;;;;;;19.73;93.67;98311.66;5030006;28;20878;-75
2022/05/15 07:22:41;;;;;;;12.77;7.50;;;;;;;19.78;95.47;98316.19;5028379;28;20063;-76
2022/05/15 07:25:07;;;;;;;10.95;8.02;;;;;;;19.85;96.94;98312.84;5027409;28;20096;-76
2022/05/15 07:27:32;;;;;;;10.27;7.35;;;;;;;20.09;91.07;98310.84;5028199;28;20101;-75
2022/05/15 07:29:58;;;;;;;10.27;7.05;;;;;;;20.28;89.82;98304.72;5029129;28;20425;-75
2022/05/15 07:32:23;;;;;;;9.50;5.80;;;;;;;20.47;89.52;98309.66;5044421;28;20061;-75
2022/05/15 07:34:49;;;;;;;10.68;7.03;;;;;;;20.25;88.55;98302.63;5026547;28;20025;-76
2022/05/15 07:37:16;;;;;;;9.93;5.85;;;;;;;20.26;90.57;98310.66;5025268;28;20057;-74
2022/05/15 07:39:42;;;;;;;11.70;7.20;;;;;;;20.16;89.23;98308.31;5027330;28;20209;-76
2022/05/15 07:42:07;;;;;;;9.95;6.78;;;;;;;20.11;93.12;98314.09;5028276;28;20470;-75
2022/05/15 07:44:33;;;;;;;8.55;6.38;;;;;;;20.13;91.36;98311.78;5027900;28;20068;-76
2022/05/15 07:46:58;;;;;;;9.77;6.32;;;;;;;20.23;91.16;98299.38;5030699;28;20089;-76
2022/05/15 07:49:24;;;;;;;10.35;6.40;;;;;;;20.64;90.49;98303.84;5032541;28;20040;-76
2022/05/15 07:51:49;;;;;;;10.40;6.90;;;;;;;21.27;85.52;98302.84;5047568;28;20095;-75
2022/05/15 07:54:17;;;;;;;7.18;5.60;;;;;;;21.52;80.93;98300.72;5027827;28;20033;-75
2022/05/15 07:56:42;;;;;;;9.63;6.55;;;;;;;21.67;82.00;98305.50;5028017;28;20044;-76
2022/05/15 07:59:08;;;;;;;11.88;6.60;;;;;;;22.72;75.75;98302.81;5026883;28;20490;-75
2022/05/15 08:01:34;;;;;;;11.32;5.57;;;;;;;23.71;73.12;98304.75;5026932;28;20020;-77
2022/05/15 08:03:59;;;;;;;8.57;6.03;;;;;;;25.25;63.35;98301.81;5026603;28;20021;-77
2022/05/15 08:09:09;;;;;;;8.30;5.68;;;;;;;28.33;52.72;98307.84;5029155;28;20437;-77
2022/05/15 08:11:36;;;;;;;8.30;6.15;;;;;;;28.43;51.47;98306.22;5032529;28;20037;-74
2022/05/15 08:14:04;;;;;;;6.72;5.00;;;;;;;28.92;50.89;98306.09;5032227;28;20025;-75
2022/05/15 08:16:31;;;;;;;7.43;5.38;;;;;;;29.10;48.62;98294.78;5028026;28;20022;-77
2022/05/15 08:24:25;;;;;;;8.40;6.30;;;;;;;28.88;50.54;98293.25;5030028;28;20044;-74
2022/05/15 08:26:50;;;;;;;10.18;6.30;;;;;;;29.93;47.26;98299.53;5030399;28;20486;-75
2022/05/15 08:29:18;;;;;;;9.25;6.30;;;;;;;31.00;45.85;98297.28;5027864;28;20052;-76
2022/05/15 08:31:43;;;;;;;7.28;5.75;;;;;;;29.51;48.27;98295.75;5031245;28;20156;-77
2022/05/15 08:34:09;;;;;;;10.10;6.10;;;;;;;30.94;48.31;98299.75;5030401;28;20074;-74
2022/05/15 08:36:35;;;;;;;8.15;6.35;;;;;;;31.88;42.50;98300.91;5030897;28;20454;-75
2022/05/15 08:39:00;;;;;;;8.25;5.97;;;;;;;30.44;46.74;98302.31;5045079;28;20026;-74
2022/05/15 08:41:33;;;;;;;13.60;9.73;;;;;;;30.85;45.53;98296.63;5029740;28;20103;-73
2022/05/15 08:44:15;;;;;;;8.00;6.47;;;;;;;31.58;43.63;98296.91;5030374;28;20051;-75
2022/05/15 08:47:13;;;;;;;9.88;6.53;;;;;;;30.19;47.19;98293.25;5031000;28;20127;-76
2022/05/15 08:49:46;;;;;;;8.63;6.57;;;;;;;30.63;45.43;98293.25;5025435;28;20097;-75
2022/05/15 08:52:26;;;;;;;7.88;6.97;;;;;;;30.61;45.83;98298.50;5046942;28;20025;-76
2022/05/15 08:55:06;;;;;;;8.35;6.45;;;;;;;31.18;43.25;98303.50;5031212;28;20021;-74
2022/05/15 08:57:34;;;;;;;9.85;6.53;;;;;;;30.18;46.12;98297.28;5032256;28;20125;-74
2022/05/15 09:00:01;;;;;;;7.60;5.90;;;;;;;31.51;42.73;98299.84;5032603;28;20025;-74
2022/05/15 09:02:26;;;;;;;8.45;6.32;;;;;;;31.07;42.99;98298.00;5045966;28;20064;-74
2022/05/15 09:04:53;;;;;;;9.38;5.90;;;;;;;32.70;40.11;98301.94;5031874;28;20120;-75
2022/05/15 09:07:25;;;;;;;8.13;6.15;;;;;;;32.10;39.44;98302.19;5031770;28;20040;-74
2022/05/15 09:10:10;;;;;;;8.07;6.28;;;;;;;31.81;42.66;98290.50;5044643;28;20041;-75
2022/05/15 09:12:36;;;;;;;9.15;6.20;;;;;;;32.09;39.85;98295.72;5045183;28;20489;-74
2022/05/15 09:15:16;;;;;;;9.20;5.47;;;;;;;33.40;38.75;98293.19;5032230;28;20026;-73
2022/05/15 09:18:03;;;;;;;9.65;5.85;;;;;;;32.91;38.44;98289.34;5030718;28;20126;-75
2022/05/15 09:20:36;;;;;;;8.63;5.40;;;;;;;32.74;38.35;98284.84;5026109;28;20022;-75
2022/05/15 09:23:08;;;;;;;9.82;6.88;;;;;;;32.00;39.01;98286.13;5032505;28;20045;-74
2022/05/15 09:25:39;;;;;;;8.25;5.50;;;;;;;31.23;40.86;98272.72;5035001;28;20092;-74
2022/05/15 09:28:08;;;;;;;7.57;5.97;;;;;;;30.39;42.76;98274.50;5032946;28;20025;-76
2022/05/15 09:30:45;;;;;;;7.57;5.90;;;;;;;29.57;43.41;98271.53;5032539;28;21034;-73
2022/05/15 09:33:38;;;;;;;7.38;5.03;;;;;;;28.80;45.19;98269.94;5033866;28;20406;-74
2022/05/15 09:36:22;;;;;;;8.23;5.75;;;;;;;28.95;44.82;98270.66;5033154;28;20029;-73
2022/05/15 09:38:49;;;;;;;11.77;7.03;;;;;;;27.65;47.75;98267.66;5034063;28;20030;-74
2022/05/15 09:44:27;;;;;;;9.57;4.95;;;;;;;27.95;46.67;98260.81;5032402;28;20132;-72
2022/05/15 09:46:59;;;;;;;9.60;4.78;;;;;;;27.57;47.04;98254.78;5031234;28;20032;-72
2022/05/15 09:49:26;;;;;;;6.13;4.97;;;;;;;27.28;46.90;98253.13;5032041;28;20141;-72
2022/05/15 09:51:55;;;;;;;7.43;4.97;;;;;;;27.32;47.19;98251.09;5031989;28;20037;-71
2022/05/15 09:54:33;;;;;;;5.75;4.45;;;;;;;27.64;48.13;98254.78;5031522;28;20022;-73
2022/05/15 09:57:17;;;;;;;6.40;4.88;;;;;;;27.99;47.51;98248.34;5032158;28;20103;-72
2022/05/15 10:00:05;;;;;;;6.75;5.10;;;;;;;27.70;47.80;98251.56;5032601;28;20378;-71
2022/05/15 10:02:49;;;;;;;6.70;4.88;;;;;;;27.31;48.18;98251.50;5034746;28;20025;-71
2022/05/15 10:05:14;;;;;;;8.48;5.28;;;;;;;26.59;48.83;98244.03;5036097;28;20125;-73
2022/05/15 10:07:44;;;;;;;6.17;4.37;;;;;;;26.07;50.47;98234.06;5032762;28;20116;-71
2022/05/15 10:10:21;;;;;;;7.50;4.88;;;;;;;26.69;48.76;98240.44;5032771;28;20348;-73
2022/05/15 10:12:52;;;;;;;7.43;5.07;;;;;;;26.15;49.73;98232.94;5031900;28;20034;-73
2022/05/15 10:15:19;;;;;;;6.55;4.72;;;;;;;26.66;48.52;98237.66;5031851;28;20382;-74
2022/05/15 10:17:56;;;;;;;6.57;4.60;;;;;;;26.82;47.53;98226.88;5030879;28;20471;-74
2022/05/15 10:20:30;;;;;;;6.72;4.30;;;;;;;26.92;48.52;98229.75;5031811;28;20478;-75
2022/05/15 10:23:13;;;;;;;5.15;4.13;;;;;;;27.27;47.83;98233.84;5031857;28;20037;-74
2022/05/15 10:25:48;;;;;;;7.68;5.00;;;;;;;26.94;49.08;98227.31;5028162;28;20033;-73
2022/05/15 10:28:26;;;;;;;6.22;4.63;;;;;;;26.68;47.61;98224.00;5046977;28;20072;-75
2022/05/15 10:31:21;;;;;;;5.55;4.03;;;;;;;26.77;46.94;98213.22;5046800;28;20142;-72
2022/05/15 10:34:02;;;;;;;6.00;4.38;;;;;;;26.72;47.32;98214.38;5018331;28;20029;-73
2022/05/15 10:37:06;;;;;;;6.05;4.53;;;;;;;26.10;48.99;98205.25;5043787;28;20030;-74
2022/05/15 10:39:50;;;;;;;5.72;4.50;;;;;;;25.62;49.34;98198.13;5016156;28;20132;-73
2022/05/15 10:42:25;;;;;;;5.43;4.20;;;;;;;26.07;48.53;98200.41;5028157;28;20169;-73
2022/05/15 10:45:11;;;;;;;5.05;4.20;;;;;;;26.13;48.16;98192.44;5028585;28;20029;-73
2022/05/15 10:48:14;;;;;;;5.63;4.28;;;;;;;25.98;49.21;98186.75;5031636;28;20124;-75
2022/05/15 10:51:19;;;;;;;6.75;4.32;;;;;;;25.62;52.35;98189.72;5028225;28;20036;-73
2022/05/15 10:57:30;;;;;;;5.15;4.18;;;;;;;25.33;51.50;98180.22;5027794;28;20852;-73
2022/05/15 11:00:03;;;;;;;6.15;4.78;;;;;;;24.69;51.11;98173.16;5024004;28;20172;-73
2022/05/15 11:02:50;;;;;;;5.93;4.20;;;;;;;25.06;50.57;98171.16;5027749;28;20108;-74
2022/05/15 11:05:44;;;;;;;5.68;4.22;;;;;;;25.16;51.07;98170.47;5027502;28;20044;-74
2022/05/15 11:08:37;;;;;;;6.40;4.13;;;;;;;25.14;50.50;98158.84;4999727;28;20080;-74
2022/05/15 11:11:22;;;;;;;6.28;4.35;;;;;;;24.98;50.71;98166.69;5028017;28;20092;-75
2022/05/15 11:13:54;;;;;;;6.22;3.83;;;;;;;25.21;49.64;98150.53;5038675;28;20124;-74
2022/05/15 11:16:33;;;;;;;6.68;4.13;;;;;;;25.37;50.58;98153.84;5021255;28;20033;-75
2022/05/15 11:19:18;;;;;;;4.75;3.75;;;;;;;25.31;50.05;98152.59;5023841;28;20498;-73
2022/05/15 11:22:01;;;;;;;5.72;4.47;;;;;;;25.19;51.66;98150.09;5025558;28;20517;-75
2022/05/15 11:24:39;;;;;;;6.43;4.55;;;;;;;25.29;51.45;98149.38;5025012;28;20067;-74
2022/05/15 11:27:21;;;;;;;7.88;4.10;;;;;;;25.41;51.07;98146.28;5026218;28;20040;-75
2022/05/15 11:29:51;;;;;;;6.60;4.05;;;;;;;25.70;48.98;98146.50;5027972;28;20040;-75
2022/05/15 11:32:33;;;;;;;5.13;4.00;;;;;;;25.78;49.47;98143.34;5027632;28;20039;-75
2022/05/15 11:35:19;;;;;;;6.95;4.43;;;;;;;25.55;48.75;98146.44;5029885;28;20029;-76
2022/05/15 11:37:53;;;;;;;6.50;4.65;;;;;;;25.82;47.40;98146.19;5015115;28;20039;-74
2022/05/15 11:40:33;;;;;;;10.27;4.70;;;;;;;25.72;48.86;98132.94;5040292;28;20038;-74
2022/05/15 11:42:59;;;;;;;6.63;4.30;;;;;;;25.84;48.63;98132.59;5037832;28;20036;-75
2022/05/15 11:45:28;;;;;;;4.75;3.83;;;;;;;25.72;50.01;98130.13;5041565;28;20025;-76
2022/05/15 11:48:23;;;;;;;9.80;4.20;;;;;;;25.73;49.73;98134.50;5024510;28;20029;-74
2022/05/15 11:50:59;;;;;;;5.05;4.00;;;;;;;25.75;49.08;98121.72;5041886;28;20040;-76
2022/05/15 11:53:30;;;;;;;5.22;4.03;;;;;;;25.79;49.20;98107.72;5040880;28;20025;-77